Time;durP1;ratioP1;P1;durP2;ratioP2;P2;SDS_P1;SDS_P2;PMS_P1;PMS_P2;Temp;Humidity;BMP_temperature;BMP_pressure;BME280_temperature;BME280_humidity;BME280_pressure;Samples;Min_cycle;Max_cycle;Signal;HPM_P1;HPM_P2
2023/10/07 00:02:21;;;;;;;11.02;5.72;;;;;;;;;;4925986;29;20489;-74
2023/10/07 00:04:54;;;;;;;41.78;37.10;;;;;;;;;;4905732;29;20598;-74
2023/10/07 00:07:30;;;;;;;74.03;67.65;;;;;;;;;;4927201;29;20769;-75
2023/10/07 00:10:03;;;;;;;9.75;5.13;;;;;;;;;;4919364;29;20475;-75
2023/10/07 00:12:35;;;;;;;144.35;130.68;;;;;;;;;;4920925;29;20447;-74
2023/10/07 00:15:04;;;;;;;109.82;101.00;;;;;;;;;;4915685;29;20479;-74
2023/10/07 00:17:31;;;;;;;15.80;8.43;;;;;;;;;;4928145;29;20435;-75
2023/10/07 00:19:58;;;;;;;11.93;6.00;;;;;;;;;;4917921;29;20974;-75
2023/10/07 00:22:26;;;;;;;13.45;5.47;;;;;;;;;;4906771;29;20612;-75
2023/10/07 00:24:58;;;;;;;10.95;5.40;;;;;;;;;;4918049;29;20842;-74
2023/10/07 00:27:31;;;;;;;12.73;5.35;;;;;;;;;;4918234;29;20469;-75
2023/10/07 00:30:00;;;;;;;15.18;5.55;;;;;;;;;;4919936;29;20522;-75
2023/10/07 00:32:32;;;;;;;16.67;6.13;;;;;;;;;;4927871;29;20447;-75
2023/10/07 00:35:00;;;;;;;15.23;5.75;;;;;;;;;;4928029;29;20939;-75
2023/10/07 00:37:33;;;;;;;15.57;6.17;;;;;;;;;;4928427;29;20439;-75
2023/10/07 00:40:14;;;;;;;10.52;5.45;;;;;;;;;;4918766;29;20441;-75
2023/10/07 00:42:45;;;;;;;11.67;5.77;;;;;;;;;;4925627;29;20511;-75
2023/10/07 00:45:16;;;;;;;13.40;5.88;;;;;;;;;;4895670;29;20454;-76
2023/10/07 00:47:46;;;;;;;14.48;6.30;;;;;;;;;;4928207;29;20483;-76
2023/10/07 00:50:13;;;;;;;18.00;6.45;;;;;;;;;;4921972;29;20804;-75
2023/10/07 00:52:45;;;;;;;15.30;6.45;;;;;;;;;;4911714;29;20439;-75
2023/10/07 00:55:22;;;;;;;13.23;6.38;;;;;;;;;;4919965;29;20563;-75
2023/10/07 00:57:53;;;;;;;15.15;6.68;;;;;;;;;;4920931;29;20909;-75
2023/10/07 01:03:12;;;;;;;13.23;6.03;;;;;;;;;;4928581;29;20530;-75
2023/10/07 01:06:07;;;;;;;14.73;6.67;;;;;;;;;;4919864;29;20445;-75
2023/10/07 01:08:36;;;;;;;11.82;6.20;;;;;;;;;;4924766;29;20448;-76
2023/10/07 01:13:56;;;;;;;16.23;7.03;;;;;;;;;;4927835;29;20446;-76
2023/10/07 01:21:50;;;;;;;16.30;6.47;;;;;;;;;;4915344;29;20481;-76
2023/10/07 01:24:33;;;;;;;15.77;7.28;;;;;;;;;;4922359;29;20932;-76
2023/10/07 01:27:06;;;;;;;13.50;7.15;;;;;;;;;;4928952;29;20906;-76
2023/10/07 01:29:34;;;;;;;17.08;7.53;;;;;;;;;;4924216;29;20441;-75
2023/10/07 01:32:12;;;;;;;14.95;7.32;;;;;;;;;;4929672;29;20443;-76
2023/10/07 01:34:47;;;;;;;15.73;7.00;;;;;;;;;;4926094;29;20526;-75
2023/10/07 01:37:20;;;;;;;79.35;72.50;;;;;;;;;;4929622;29;20475;-77
2023/10/07 01:39:52;;;;;;;18.83;7.63;;;;;;;;;;4922248;29;20472;-77
2023/10/07 01:42:38;;;;;;;19.57;10.23;;;;;;;;;;4926118;29;21078;-75
2023/10/07 01:45:20;;;;;;;25.63;22.90;;;;;;;;;;4922445;29;21246;-75
2023/10/07 01:47:55;;;;;;;61.45;55.95;;;;;;;;;;4925014;29;20451;-75
2023/10/07 01:50:24;;;;;;;15.02;7.30;;;;;;;;;;4911351;29;20783;-75
2023/10/07 01:52:55;;;;;;;15.63;6.57;;;;;;;;;;4923031;29;20444;-75
2023/10/07 01:55:27;;;;;;;24.73;22.20;;;;;;;;;;4923770;29;20445;-75
2023/10/07 01:57:55;;;;;;;16.42;6.22;;;;;;;;;;4931464;29;20461;-76
2023/10/07 02:03:16;;;;;;;15.50;7.40;;;;;;;;;;4930701;29;20454;-75
2023/10/07 02:05:48;;;;;;;14.85;7.13;;;;;;;;;;4926040;29;20516;-76
2023/10/07 02:08:20;;;;;;;19.48;7.95;;;;;;;;;;4926803;29;21138;-75
2023/10/07 02:10:49;;;;;;;19.67;7.93;;;;;;;;;;4926223;29;20456;-75
2023/10/07 02:13:19;;;;;;;16.40;7.68;;;;;;;;;;4927074;29;20443;-76
2023/10/07 02:15:47;;;;;;;21.13;7.70;;;;;;;;;;4917472;29;20439;-75
2023/10/07 02:18:17;;;;;;;19.25;7.40;;;;;;;;;;4929750;29;20820;-75
2023/10/07 02:26:05;;;;;;;14.85;6.95;;;;;;;;;;4917808;29;20441;-76
2023/10/07 02:28:34;;;;;;;16.33;7.18;;;;;;;;;;4926019;29;20443;-75
2023/10/07 02:31:08;;;;;;;16.77;7.15;;;;;;;;;;4922940;29;20491;-76
2023/10/07 02:33:42;;;;;;;13.13;6.95;;;;;;;;;;4925439;29;20467;-76
2023/10/07 02:36:12;;;;;;;25.05;7.80;;;;;;;;;;4924826;29;20506;-76
2023/10/07 02:38:43;;;;;;;17.67;7.35;;;;;;;;;;4926828;29;20459;-78
2023/10/07 02:41:17;;;;;;;22.20;7.47;;;;;;;;;;4926026;29;20554;-75
2023/10/07 02:43:48;;;;;;;14.05;7.20;;;;;;;;;;4928003;29;20527;-76
2023/10/07 02:46:32;;;;;;;17.70;7.57;;;;;;;;;;4923594;29;20871;-75
2023/10/07 02:49:09;;;;;;;16.83;7.00;;;;;;;;;;4921815;29;20522;-75
2023/10/07 02:51:52;;;;;;;15.07;7.07;;;;;;;;;;4927892;29;20539;-61
2023/10/07 02:54:22;;;;;;;13.90;6.72;;;;;;;;;;4914442;29;20441;-61
2023/10/07 02:57:04;;;;;;;14.80;7.10;;;;;;;;;;4924024;29;20466;-61
2023/10/07 02:59:50;;;;;;;19.23;7.07;;;;;;;;;;4920274;29;20940;-61
2023/10/07 03:04:59;;;;;;;19.50;7.72;;;;;;;;;;4921723;29;20450;-61
2023/10/07 03:07:26;;;;;;;18.15;8.32;;;;;;;;;;4929446;29;20451;-61
2023/10/07 03:10:04;;;;;;;22.07;7.90;;;;;;;;;;4921088;29;20485;-61
2023/10/07 03:12:36;;;;;;;17.98;8.15;;;;;;;;;;4905695;29;20526;-61
2023/10/07 03:15:20;;;;;;;19.77;8.90;;;;;;;;;;4919503;29;20801;-61
2023/10/07 03:17:50;;;;;;;18.20;7.85;;;;;;;;;;4920264;29;20494;-61
2023/10/07 03:20:27;;;;;;;20.27;8.75;;;;;;;;;;4922284;29;20433;-62
2023/10/07 03:23:14;;;;;;;21.60;8.85;;;;;;;;;;4925369;29;20435;-61
2023/10/07 03:28:34;;;;;;;23.27;8.87;;;;;;;;;;4927952;29;20475;-61
2023/10/07 03:31:08;;;;;;;19.27;8.90;;;;;;;;;;4928349;29;20450;-62
2023/10/07 03:33:59;;;;;;;17.53;8.27;;;;;;;;;;4919753;29;20551;-62
2023/10/07 03:36:45;;;;;;;22.38;8.75;;;;;;;;;;4907473;29;20451;-62
2023/10/07 03:41:48;;;;;;;18.70;8.57;;;;;;;;;;4927644;29;20497;-61
2023/10/07 03:44:16;;;;;;;18.98;8.35;;;;;;;;;;4905426;29;20441;-61
2023/10/07 03:46:49;;;;;;;20.48;8.48;;;;;;;;;;4920213;29;20439;-60
2023/10/07 03:49:21;;;;;;;23.48;9.43;;;;;;;;;;4918674;29;20445;-60
2023/10/07 03:52:07;;;;;;;22.03;9.60;;;;;;;;;;4918385;29;20987;-60
2023/10/07 03:54:40;;;;;;;22.45;9.77;;;;;;;;;;4921301;29;20448;-62
2023/10/07 03:57:08;;;;;;;21.83;8.88;;;;;;;;;;4903938;29;20498;-61
2023/10/07 03:59:36;;;;;;;24.90;9.75;;;;;;;;;;4918783;29;20441;-62
2023/10/07 04:02:29;;;;;;;20.55;8.65;;;;;;;;;;4923018;29;20523;-61
2023/10/07 04:05:00;;;;;;;20.25;9.52;;;;;;;;;;4918438;29;20436;-61
2023/10/07 04:07:30;;;;;;;24.27;9.70;;;;;;;;;;4922202;29;20432;-62
2023/10/07 04:10:31;;;;;;;25.63;10.02;;;;;;;;;;4919004;29;20923;-62
2023/10/07 04:13:01;;;;;;;18.13;8.48;;;;;;;;;;4929409;29;20447;-62
2023/10/07 04:15:29;;;;;;;15.05;8.40;;;;;;;;;;4900876;29;20454;-62
2023/10/07 04:17:57;;;;;;;21.85;8.57;;;;;;;;;;4924430;29;20855;-62
2023/10/07 04:20:42;;;;;;;17.90;8.02;;;;;;;;;;4921062;29;20443;-62
2023/10/07 04:23:12;;;;;;;19.40;8.00;;;;;;;;;;4924868;29;20451;-62
2023/10/07 04:25:43;;;;;;;18.25;8.10;;;;;;;;;;4920280;29;20914;-62
2023/10/07 04:28:13;;;;;;;19.52;8.45;;;;;;;;;;4922449;29;20534;-61
2023/10/07 04:30:46;;;;;;;18.33;8.18;;;;;;;;;;4921860;29;20450;-62
2023/10/07 04:33:17;;;;;;;15.15;7.63;;;;;;;;;;4905987;29;20458;-62
2023/10/07 04:35:52;;;;;;;15.45;7.47;;;;;;;;;;4918375;29;20437;-62
2023/10/07 04:46:22;;;;;;;16.03;7.37;;;;;;;;;;4926697;29;20467;-61
2023/10/07 04:48:56;;;;;;;17.15;7.78;;;;;;;;;;4923430;29;20443;-61
2023/10/07 04:54:00;;;;;;;16.02;8.13;;;;;;;;;;4919042;29;20572;-61
2023/10/07 04:56:33;;;;;;;13.93;7.20;;;;;;;;;;4922351;29;20441;-61
2023/10/07 04:59:00;;;;;;;12.73;7.20;;;;;;;;;;4925492;29;20601;-61
2023/10/07 05:01:33;;;;;;;15.95;7.25;;;;;;;;;;4923720;29;20436;-62
2023/10/07 05:04:09;;;;;;;14.43;7.07;;;;;;;;;;4921822;29;20553;-61
2023/10/07 05:06:38;;;;;;;14.75;6.68;;;;;;;;;;4925834;29;20442;-61
2023/10/07 05:09:09;;;;;;;13.85;6.88;;;;;;;;;;4926945;29;20443;-61
2023/10/07 05:11:40;;;;;;;13.88;7.10;;;;;;;;;;4928774;29;20482;-61
2023/10/07 05:14:08;;;;;;;13.73;6.25;;;;;;;;;;4928139;29;20526;-61
2023/10/07 05:16:46;;;;;;;14.43;6.47;;;;;;;;;;4927113;29;20462;-61
2023/10/07 05:19:26;;;;;;;15.85;6.60;;;;;;;;;;4914742;29;20448;-61
2023/10/07 05:24:46;;;;;;;14.50;7.13;;;;;;;;;;4915430;29;21184;-61
2023/10/07 05:27:15;;;;;;;15.75;6.68;;;;;;;;;;4924161;29;20620;-61
2023/10/07 05:29:43;;;;;;;15.27;6.35;;;;;;;;;;4928013;29;21188;-61
2023/10/07 05:32:11;;;;;;;14.15;6.30;;;;;;;;;;4924458;29;20583;-62
2023/10/07 05:34:38;;;;;;;13.13;6.30;;;;;;;;;;4918444;29;20981;-61
2023/10/07 05:37:15;;;;;;;11.15;5.72;;;;;;;;;;4914086;29;20556;-61
2023/10/07 05:39:46;;;;;;;13.65;6.22;;;;;;;;;;4925856;29;20494;-61
2023/10/07 05:42:13;;;;;;;11.85;5.40;;;;;;;;;;4931694;29;20446;-61
2023/10/07 05:44:40;;;;;;;11.95;5.85;;;;;;;;;;4924486;29;21415;-61
2023/10/07 05:47:10;;;;;;;14.77;5.95;;;;;;;;;;4930803;29;21092;-62
2023/10/07 05:49:38;;;;;;;10.90;5.53;;;;;;;;;;4921785;29;20472;-61
2023/10/07 05:52:08;;;;;;;11.23;5.72;;;;;;;;;;4929932;29;20439;-61
2023/10/07 05:54:36;;;;;;;11.50;6.55;;;;;;;;;;4921612;29;20923;-61
2023/10/07 05:57:05;;;;;;;11.95;6.13;;;;;;;;;;4922588;29;20596;-61
2023/10/07 05:59:33;;;;;;;13.32;6.15;;;;;;;;;;4921800;29;20969;-61
2023/10/07 06:02:05;;;;;;;13.75;6.18;;;;;;;;;;4926575;29;20461;-61
2023/10/07 06:04:34;;;;;;;13.10;6.13;;;;;;;;;;4914110;29;20852;-61
2023/10/07 06:07:01;;;;;;;13.65;6.25;;;;;;;;;;4910617;29;20443;-61
2023/10/07 06:09:28;;;;;;;12.20;6.28;;;;;;;;;;4920935;29;20445;-61
2023/10/07 06:11:59;;;;;;;9.93;5.85;;;;;;;;;;4920358;29;20491;-62
2023/10/07 06:14:26;;;;;;;10.20;5.70;;;;;;;;;;4923173;29;20538;-61
2023/10/07 06:16:53;;;;;;;11.60;6.13;;;;;;;;;;4925257;29;20435;-61
2023/10/07 06:19:24;;;;;;;15.10;6.25;;;;;;;;;;4925052;29;20519;-61
2023/10/07 06:21:56;;;;;;;11.93;5.70;;;;;;;;;;4924612;29;20545;-61
2023/10/07 06:24:24;;;;;;;11.85;5.90;;;;;;;;;;4925629;29;20474;-61
2023/10/07 06:26:53;;;;;;;10.93;5.87;;;;;;;;;;4924234;29;20447;-62
2023/10/07 06:29:21;;;;;;;11.68;6.00;;;;;;;;;;4924607;29;20451;-62
2023/10/07 06:31:55;;;;;;;12.45;6.25;;;;;;;;;;4919771;29;20532;-62
2023/10/07 06:34:26;;;;;;;20.10;6.70;;;;;;;;;;4920110;29;20460;-62
2023/10/07 06:36:54;;;;;;;13.90;6.50;;;;;;;;;;4919858;29;20437;-62
2023/10/07 06:39:27;;;;;;;14.18;7.20;;;;;;;;;;4916540;29;20515;-62
2023/10/07 06:41:55;;;;;;;13.43;6.20;;;;;;;;;;4929363;29;20431;-62
2023/10/07 06:44:24;;;;;;;13.33;5.97;;;;;;;;;;4923982;29;20587;-62
2023/10/07 06:46:56;;;;;;;13.67;6.20;;;;;;;;;;4929579;29;20551;-62
2023/10/07 06:49:23;;;;;;;13.60;6.50;;;;;;;;;;4920859;29;21004;-61
2023/10/07 06:51:56;;;;;;;13.95;6.65;;;;;;;;;;4918818;29;20453;-62
2023/10/07 06:54:25;;;;;;;13.85;7.15;;;;;;;;;;4903316;29;20461;-61
2023/10/07 06:56:55;;;;;;;14.43;6.60;;;;;;;;;;4924119;29;20859;-62
2023/10/07 06:59:27;;;;;;;15.68;7.00;;;;;;;;;;4917162;29;20467;-62
2023/10/07 07:01:55;;;;;;;11.35;6.60;;;;;;;;;;4928212;29;20519;-62
2023/10/07 07:04:24;;;;;;;12.77;6.90;;;;;;;;;;4926010;29;20445;-62
2023/10/07 07:07:10;;;;;;;15.30;7.05;;;;;;;;;;4927454;29;20446;-61
2023/10/07 07:12:21;;;;;;;13.05;5.88;;;;;;;;;;4920066;29;20440;-62
2023/10/07 07:14:53;;;;;;;12.68;6.47;;;;;;;;;;4920532;29;20958;-61
2023/10/07 07:22:42;;;;;;;13.57;6.80;;;;;;;;;;4924565;29;21027;-62
2023/10/07 07:25:10;;;;;;;11.18;6.40;;;;;;;;;;4926212;29;20455;-62
2023/10/07 07:27:53;;;;;;;13.75;6.32;;;;;;;;;;4908901;29;20466;-62
2023/10/07 07:30:30;;;;;;;11.93;6.60;;;;;;;;;;4921198;29;20447;-62
2023/10/07 07:33:07;;;;;;;10.33;5.80;;;;;;;;;;4911380;29;20993;-62
2023/10/07 07:38:29;;;;;;;12.38;6.40;;;;;;;;;;4921655;29;20518;-62
2023/10/07 07:41:05;;;;;;;13.17;6.40;;;;;;;;;;4919412;29;20437;-61
2023/10/07 07:43:34;;;;;;;11.32;6.30;;;;;;;;;;4921499;29;20455;-62
2023/10/07 07:48:45;;;;;;;13.00;6.10;;;;;;;;;;4916295;29;20480;-62
2023/10/07 07:51:25;;;;;;;13.40;6.10;;;;;;;;;;4917878;29;20536;-61
2023/10/07 07:53:52;;;;;;;16.60;6.30;;;;;;;;;;4921961;29;20454;-62
2023/10/07 07:56:22;;;;;;;13.10;6.35;;;;;;;;;;4925402;29;20437;-62
2023/10/07 07:58:52;;;;;;;13.50;5.82;;;;;;;;;;4922759;29;20439;-62
2023/10/07 08:01:28;;;;;;;11.18;5.88;;;;;;;;;;4923903;29;20526;-62
2023/10/07 08:03:59;;;;;;;11.27;6.20;;;;;;;;;;4923464;29;20471;-62
2023/10/07 08:06:27;;;;;;;13.30;6.70;;;;;;;;;;4923138;29;20571;-62
2023/10/07 08:08:54;;;;;;;12.02;5.85;;;;;;;;;;4906471;29;20447;-62
2023/10/07 08:11:22;;;;;;;10.85;5.97;;;;;;;;;;4923216;29;20479;-61
2023/10/07 08:13:50;;;;;;;12.00;5.88;;;;;;;;;;4909367;29;20949;-62
2023/10/07 08:16:20;;;;;;;11.65;5.53;;;;;;;;;;4925252;29;20482;-62
2023/10/07 08:18:54;;;;;;;11.07;5.85;;;;;;;;;;4921959;29;20443;-62
2023/10/07 08:21:28;;;;;;;8.80;5.25;;;;;;;;;;4920150;29;20534;-62
2023/10/07 08:24:01;;;;;;;10.40;5.30;;;;;;;;;;4920967;29;20431;-62
2023/10/07 08:26:29;;;;;;;9.65;5.20;;;;;;;;;;4926884;29;20514;-61
2023/10/07 08:29:03;;;;;;;9.80;4.95;;;;;;;;;;4916086;29;20439;-61
2023/10/07 08:31:39;;;;;;;8.63;5.13;;;;;;;;;;4927288;29;20488;-61
2023/10/07 08:36:36;;;;;;;12.68;5.63;;;;;;;;;;4926885;29;20431;-62
2023/10/07 08:39:05;;;;;;;9.38;4.90;;;;;;;;;;4922379;29;20435;-61
2023/10/07 08:41:33;;;;;;;10.50;5.35;;;;;;;;;;4921014;29;20528;-62
2023/10/07 08:44:12;;;;;;;11.93;5.53;;;;;;;;;;4924584;29;20559;-61
2023/10/07 08:46:52;;;;;;;9.63;5.63;;;;;;;;;;4925904;29;20447;-61
2023/10/07 08:49:26;;;;;;;10.35;5.55;;;;;;;;;;4905152;29;20447;-61
2023/10/07 08:51:57;;;;;;;12.65;5.50;;;;;;;;;;4928152;29;20447;-61
2023/10/07 08:55:09;;;;;;;12.07;5.03;;;;;;;;;;4919212;29;20977;-62
2023/10/07 08:57:22;;;;;;;9.15;5.20;;;;;;;;;;4902534;29;20441;-62
2023/10/07 08:59:52;;;;;;;9.55;4.97;;;;;;;;;;4922871;29;20559;-62
2023/10/07 09:02:30;;;;;;;9.90;5.03;;;;;;;;;;4918827;29;20459;-62
2023/10/07 09:05:06;;;;;;;10.48;5.00;;;;;;;;;;4921097;29;20810;-61
2023/10/07 09:07:33;;;;;;;10.65;5.32;;;;;;;;;;4923277;29;20515;-62
2023/10/07 09:10:10;;;;;;;8.13;4.93;;;;;;;;;;4907375;29;20525;-62
2023/10/07 09:12:51;;;;;;;12.38;5.40;;;;;;;;;;4928402;29;20502;-62
2023/10/07 09:15:29;;;;;;;11.57;5.05;;;;;;;;;;4923002;29;20511;-62
2023/10/07 09:18:06;;;;;;;8.30;4.75;;;;;;;;;;4904496;29;20472;-61
2023/10/07 09:20:43;;;;;;;8.30;4.70;;;;;;;;;;4914915;29;20524;-62
2023/10/07 09:23:22;;;;;;;9.32;4.93;;;;;;;;;;4928930;29;20503;-61
2023/10/07 09:25:52;;;;;;;13.30;5.40;;;;;;;;;;4927255;29;20447;-61
2023/10/07 09:28:30;;;;;;;8.90;5.53;;;;;;;;;;4926365;29;20492;-62
2023/10/07 09:31:05;;;;;;;12.43;5.27;;;;;;;;;;4921211;29;20439;-62
2023/10/07 09:33:36;;;;;;;12.75;5.07;;;;;;;;;;4922718;29;20516;-62
2023/10/07 09:39:14;;;;;;;11.73;5.00;;;;;;;;;;4922418;29;20469;-62
2023/10/07 09:41:44;;;;;;;8.82;4.75;;;;;;;;;;4922676;29;20445;-61
2023/10/07 09:44:37;;;;;;;11.68;5.07;;;;;;;;;;4914096;29;20435;-62
2023/10/07 09:47:10;;;;;;;9.50;4.53;;;;;;;;;;4919779;29;20447;-61
2023/10/07 09:49:38;;;;;;;10.30;4.72;;;;;;;;;;4912203;29;20458;-61
2023/10/07 09:52:17;;;;;;;7.30;4.47;;;;;;;;;;4925992;29;20558;-62
2023/10/07 09:54:47;;;;;;;9.63;4.50;;;;;;;;;;4928017;29;20436;-61
2023/10/07 09:57:32;;;;;;;10.00;4.68;;;;;;;;;;4923228;29;20512;-61
2023/10/07 10:03:03;;;;;;;12.10;5.18;;;;;;;;;;4920423;29;20439;-61
2023/10/07 10:05:37;;;;;;;8.10;4.70;;;;;;;;;;4928699;29;20451;-61
2023/10/07 10:08:19;;;;;;;10.05;4.55;;;;;;;;;;4928440;29;20531;-61
2023/10/07 10:10:58;;;;;;;10.37;4.97;;;;;;;;;;4918716;29;20444;-61
2023/10/07 10:13:33;;;;;;;8.20;4.28;;;;;;;;;;4921843;29;20524;-62
2023/10/07 10:16:02;;;;;;;7.70;4.55;;;;;;;;;;4924769;29;20451;-62
2023/10/07 10:18:37;;;;;;;7.67;4.27;;;;;;;;;;4924554;29;20451;-63
2023/10/07 10:21:12;;;;;;;11.43;4.82;;;;;;;;;;4925772;29;20524;-61
2023/10/07 10:23:44;;;;;;;12.63;4.80;;;;;;;;;;4922540;29;20443;-61
2023/10/07 10:26:20;;;;;;;9.10;4.95;;;;;;;;;;4930616;29;20819;-61
2023/10/07 10:29:04;;;;;;;7.47;4.53;;;;;;;;;;4925636;29;20489;-61
2023/10/07 10:31:35;;;;;;;7.53;4.57;;;;;;;;;;4927014;29;20531;-61
2023/10/07 10:34:05;;;;;;;9.10;4.43;;;;;;;;;;4924428;29;20902;-61
2023/10/07 10:36:49;;;;;;;7.57;4.23;;;;;;;;;;4922338;29;20472;-61
2023/10/07 10:39:26;;;;;;;9.17;4.80;;;;;;;;;;4928413;29;20571;-61
2023/10/07 10:42:00;;;;;;;9.05;3.90;;;;;;;;;;4923395;28;20472;-61
2023/10/07 10:44:35;;;;;;;9.05;4.20;;;;;;;;;;4925203;29;20552;-61
2023/10/07 10:47:02;;;;;;;7.13;3.90;;;;;;;;;;4929082;29;20443;-62
2023/10/07 10:49:43;;;;;;;7.85;3.42;;;;;;;;;;4916379;29;20442;-62
2023/10/07 10:52:12;;;;;;;4.57;2.53;;;;;;;;;;4898564;29;20449;-62
2023/10/07 10:54:39;;;;;;;7.13;2.85;;;;;;;;;;4916493;29;20439;-62
2023/10/07 10:57:07;;;;;;;6.88;3.38;;;;;;;;;;4925471;29;20447;-62
2023/10/07 10:59:42;;;;;;;6.47;3.42;;;;;;;;;;4922441;29;20477;-62
2023/10/07 11:02:11;;;;;;;5.03;3.28;;;;;;;;;;4919112;29;20443;-62
2023/10/07 11:04:39;;;;;;;5.67;3.50;;;;;;;;;;4928084;29;20515;-62
2023/10/07 11:07:07;;;;;;;8.50;3.75;;;;;;;;;;4923978;29;20454;-61
2023/10/07 11:09:40;;;;;;;7.00;3.90;;;;;;;;;;4913223;29;20447;-61
2023/10/07 11:12:12;;;;;;;6.35;3.92;;;;;;;;;;4929673;29;20809;-61
2023/10/07 11:14:43;;;;;;;8.15;4.15;;;;;;;;;;4921537;29;20452;-61
2023/10/07 11:17:12;;;;;;;7.82;4.10;;;;;;;;;;4922926;29;20859;-61
2023/10/07 11:19:44;;;;;;;8.80;4.10;;;;;;;;;;4926578;29;20439;-61
2023/10/07 11:22:20;;;;;;;5.70;3.80;;;;;;;;;;4920753;29;20506;-61
2023/10/07 11:24:55;;;;;;;5.53;3.63;;;;;;;;;;4905638;29;21116;-62
2023/10/07 11:27:23;;;;;;;9.05;3.75;;;;;;;;;;4924237;29;20469;-60
2023/10/07 11:30:04;;;;;;;6.35;3.53;;;;;;;;;;4908974;29;20447;-62
2023/10/07 11:32:38;;;;;;;6.80;3.42;;;;;;;;;;4927207;29;22838;-61
2023/10/07 11:35:15;;;;;;;7.75;3.90;;;;;;;;;;4927254;29;20435;-60
2023/10/07 11:37:49;;;;;;;4.55;3.28;;;;;;;;;;4925088;29;20476;-61
2023/10/07 11:40:20;;;;;;;7.18;3.45;;;;;;;;;;4923771;29;20467;-61
2023/10/07 11:42:47;;;;;;;8.75;3.42;;;;;;;;;;4924037;29;20440;-61
2023/10/07 11:45:16;;;;;;;7.40;2.65;;;;;;;;;;4927673;29;20468;-62
2023/10/07 11:47:44;;;;;;;4.05;2.65;;;;;;;;;;4910292;29;20450;-61
2023/10/07 11:50:12;;;;;;;5.78;2.50;;;;;;;;;;4906123;29;20439;-61
2023/10/07 11:52:41;;;;;;;4.40;2.50;;;;;;;;;;4919331;29;20489;-62
2023/10/07 11:55:11;;;;;;;4.60;2.43;;;;;;;;;;4925509;29;20522;-62
2023/10/07 11:57:38;;;;;;;2.80;2.55;;;;;;;;;;4914215;29;20916;-62
2023/10/07 12:00:22;;;;;;;4.43;2.58;;;;;;;;;;4921365;29;20524;-63
2023/10/07 12:02:54;;;;;;;4.55;2.65;;;;;;;;;;4924566;29;20795;-63
2023/10/07 12:05:22;;;;;;;4.22;2.45;;;;;;;;;;4920683;29;20847;-62
2023/10/07 12:07:52;;;;;;;3.45;2.53;;;;;;;;;;4926458;29;20431;-61
2023/10/07 12:10:21;;;;;;;3.60;2.80;;;;;;;;;;4922889;29;20435;-62
2023/10/07 12:12:52;;;;;;;3.78;2.38;;;;;;;;;;4920158;29;20502;-62
2023/10/07 12:15:19;;;;;;;5.50;2.97;;;;;;;;;;4924034;29;20439;-62
2023/10/07 12:17:49;;;;;;;4.20;2.55;;;;;;;;;;4927386;29;20854;-62
2023/10/07 12:20:20;;;;;;;4.50;2.67;;;;;;;;;;4929009;29;20431;-62
2023/10/07 12:22:48;;;;;;;5.20;2.78;;;;;;;;;;4925863;29;20851;-62
2023/10/07 12:25:16;;;;;;;3.63;2.77;;;;;;;;;;4911388;29;20441;-62
2023/10/07 12:27:47;;;;;;;3.67;2.50;;;;;;;;;;4919716;29;20448;-62
2023/10/07 12:30:17;;;;;;;4.57;2.53;;;;;;;;;;4926754;29;20435;-62
2023/10/07 12:32:48;;;;;;;4.38;2.25;;;;;;;;;;4919781;29;20750;-62
2023/10/07 12:35:15;;;;;;;4.35;2.70;;;;;;;;;;4907115;29;20486;-62
2023/10/07 12:37:51;;;;;;;6.15;2.70;;;;;;;;;;4926113;29;20490;-61
2023/10/07 12:40:19;;;;;;;4.23;2.43;;;;;;;;;;4927919;29;20442;-62
2023/10/07 12:42:46;;;;;;;5.15;2.42;;;;;;;;;;4914400;29;20496;-62
2023/10/07 12:45:14;;;;;;;4.50;2.60;;;;;;;;;;4928564;29;20487;-62
2023/10/07 12:47:42;;;;;;;3.95;2.58;;;;;;;;;;4920161;29;20446;-62
2023/10/07 12:50:48;;;;;;;4.72;2.47;;;;;;;;;;4924286;29;20483;-62
2023/10/07 12:53:10;;;;;;;5.37;2.63;;;;;;;;;;4919869;29;20443;-62
2023/10/07 12:55:39;;;;;;;5.55;2.78;;;;;;;;;;4920875;29;20446;-61
2023/10/07 12:58:09;;;;;;;2.50;2.30;;;;;;;;;;4916926;29;20444;-62
2023/10/07 13:00:36;;;;;;;4.15;2.78;;;;;;;;;;4924004;29;20452;-61
2023/10/07 13:03:07;;;;;;;4.43;2.57;;;;;;;;;;4925670;29;20717;-62
2023/10/07 13:05:37;;;;;;;6.20;3.00;;;;;;;;;;4924146;29;20447;-62
2023/10/07 13:08:12;;;;;;;4.72;2.65;;;;;;;;;;4926639;29;20454;-62
2023/10/07 13:10:44;;;;;;;4.28;2.50;;;;;;;;;;4925595;29;20474;-62
2023/10/07 13:13:15;;;;;;;3.53;2.50;;;;;;;;;;4924024;29;21158;-62
2023/10/07 13:15:42;;;;;;;3.10;2.50;;;;;;;;;;4922622;29;20493;-61
2023/10/07 13:18:12;;;;;;;5.10;2.70;;;;;;;;;;4919182;29;20553;-62
2023/10/07 13:20:40;;;;;;;2.90;2.25;;;;;;;;;;4922995;29;20515;-61
2023/10/07 13:23:10;;;;;;;4.97;2.88;;;;;;;;;;4927912;29;20527;-61
2023/10/07 13:25:38;;;;;;;4.60;2.58;;;;;;;;;;4920623;29;20522;-62
2023/10/07 13:28:05;;;;;;;4.47;2.88;;;;;;;;;;4924620;29;20900;-61
2023/10/07 13:30:35;;;;;;;3.92;2.40;;;;;;;;;;4923981;29;20932;-61
2023/10/07 13:33:05;;;;;;;4.13;2.67;;;;;;;;;;4924967;29;20478;-61
2023/10/07 13:35:38;;;;;;;3.95;2.60;;;;;;;;;;4911098;29;20502;-62
2023/10/07 13:38:05;;;;;;;3.92;2.70;;;;;;;;;;4925240;29;20993;-62
2023/10/07 13:40:37;;;;;;;3.92;2.40;;;;;;;;;;4921551;29;20500;-61
2023/10/07 13:43:09;;;;;;;3.35;2.63;;;;;;;;;;4922320;29;20450;-61
2023/10/07 13:45:37;;;;;;;7.03;2.70;;;;;;;;;;4915302;29;20937;-61
2023/10/07 13:48:07;;;;;;;5.05;2.58;;;;;;;;;;4904511;29;21134;-61
2023/10/07 13:50:34;;;;;;;4.80;2.47;;;;;;;;;;4921741;29;20447;-61
2023/10/07 13:58:09;;;;;;;3.45;2.42;;;;;;;;;;4924396;29;20463;-62
2023/10/07 14:03:19;;;;;;;9.25;2.85;;;;;;;;;;4927411;29;20469;-61
2023/10/07 14:05:51;;;;;;;3.78;2.47;;;;;;;;;;4927168;29;20464;-61
2023/10/07 14:08:25;;;;;;;6.03;2.72;;;;;;;;;;4922660;29;20530;-61
2023/10/07 14:10:56;;;;;;;4.82;2.47;;;;;;;;;;4927721;29;20496;-62
2023/10/07 14:13:35;;;;;;;3.35;2.40;;;;;;;;;;4905459;29;20523;-61
2023/10/07 14:16:08;;;;;;;5.28;2.78;;;;;;;;;;4916857;29;20920;-61
2023/10/07 14:18:45;;;;;;;4.35;2.50;;;;;;;;;;4912228;29;20469;-61
2023/10/07 14:21:13;;;;;;;5.97;2.80;;;;;;;;;;4921468;29;20504;-61
2023/10/07 14:23:41;;;;;;;4.63;2.67;;;;;;;;;;4924365;29;20919;-61
2023/10/07 14:26:14;;;;;;;4.70;2.55;;;;;;;;;;4916385;29;20470;-62
2023/10/07 14:28:45;;;;;;;4.87;2.50;;;;;;;;;;4923028;29;20435;-62
2023/10/07 14:31:16;;;;;;;4.33;2.50;;;;;;;;;;4925008;29;21002;-62
2023/10/07 14:33:46;;;;;;;4.30;2.80;;;;;;;;;;4921550;29;20552;-62
2023/10/07 14:36:21;;;;;;;5.97;2.53;;;;;;;;;;4930393;29;20444;-62
2023/10/07 14:38:57;;;;;;;4.38;2.50;;;;;;;;;;4914459;29;20551;-61
2023/10/07 14:41:26;;;;;;;3.17;2.42;;;;;;;;;;4910018;29;20448;-61
2023/10/07 14:43:54;;;;;;;4.70;2.93;;;;;;;;;;4925329;29;20442;-62
2023/10/07 14:46:21;;;;;;;3.30;2.40;;;;;;;;;;4925854;29;21064;-62
2023/10/07 14:48:49;;;;;;;4.03;2.55;;;;;;;;;;4920243;29;20504;-62
2023/10/07 14:51:19;;;;;;;2.92;2.50;;;;;;;;;;4923942;29;20509;-61
2023/10/07 14:53:48;;;;;;;4.43;2.58;;;;;;;;;;4925645;29;20498;-62
2023/10/07 14:56:17;;;;;;;3.15;2.20;;;;;;;;;;4924822;29;20964;-62
2023/10/07 14:58:48;;;;;;;3.65;2.30;;;;;;;;;;4922384;29;20445;-60
2023/10/07 15:01:33;;;;;;;3.67;2.30;;;;;;;;;;4919855;29;20465;-61
2023/10/07 15:04:06;;;;;;;4.57;2.50;;;;;;;;;;4922942;29;20439;-60
2023/10/07 15:06:33;;;;;;;3.58;2.53;;;;;;;;;;4920086;29;20453;-60
2023/10/07 15:09:00;;;;;;;4.30;2.53;;;;;;;;;;4916189;29;20475;-60
2023/10/07 15:11:27;;;;;;;4.95;2.47;;;;;;;;;;4919897;29;20472;-64
2023/10/07 15:13:55;;;;;;;5.15;2.35;;;;;;;;;;4924905;29;20454;-60
2023/10/07 15:16:22;;;;;;;4.85;2.55;;;;;;;;;;4919890;29;20452;-60
2023/10/07 15:18:50;;;;;;;4.77;2.27;;;;;;;;;;4925807;29;20443;-60
2023/10/07 15:21:23;;;;;;;4.90;2.40;;;;;;;;;;4923354;29;20445;-60
2023/10/07 15:23:55;;;;;;;4.43;2.70;;;;;;;;;;4924747;29;20441;-60
2023/10/07 15:26:23;;;;;;;4.25;2.50;;;;;;;;;;4916225;29;20498;-60
2023/10/07 15:28:51;;;;;;;4.15;2.83;;;;;;;;;;4913728;29;20444;-60
2023/10/07 15:31:25;;;;;;;3.05;2.45;;;;;;;;;;4919295;29;20542;-60
2023/10/07 15:33:56;;;;;;;4.43;2.38;;;;;;;;;;4928639;29;20435;-60
2023/10/07 15:36:23;;;;;;;4.47;2.80;;;;;;;;;;4921330;29;20451;-61
2023/10/07 15:38:52;;;;;;;4.75;2.42;;;;;;;;;;4925681;29;20431;-61
2023/10/07 15:41:19;;;;;;;4.97;2.70;;;;;;;;;;4928473;29;20542;-61
2023/10/07 15:43:47;;;;;;;3.60;2.42;;;;;;;;;;4920177;29;20441;-61
2023/10/07 15:46:17;;;;;;;4.13;2.67;;;;;;;;;;4913031;29;20439;-61
2023/10/07 15:48:44;;;;;;;3.65;2.30;;;;;;;;;;4918225;29;20450;-61
2023/10/07 15:51:13;;;;;;;6.25;2.97;;;;;;;;;;4923498;29;20500;-61
2023/10/07 15:53:42;;;;;;;7.20;2.40;;;;;;;;;;4914336;29;20527;-61
2023/10/07 15:56:17;;;;;;;3.83;2.10;;;;;;;;;;4922755;29;20441;-61
2023/10/07 15:58:45;;;;;;;4.72;2.10;;;;;;;;;;4916768;29;20663;-61
2023/10/07 16:01:13;;;;;;;5.40;2.20;;;;;;;;;;4903695;29;20933;-62
2023/10/07 16:03:41;;;;;;;5.90;2.70;;;;;;;;;;4916403;29;20454;-61
2023/10/07 16:06:15;;;;;;;6.35;2.40;;;;;;;;;;4920007;29;20443;-61
2023/10/07 16:08:44;;;;;;;3.92;1.92;;;;;;;;;;4924178;29;20552;-61
2023/10/07 16:11:21;;;;;;;4.93;2.70;;;;;;;;;;4920147;29;21088;-61
2023/10/07 16:13:52;;;;;;;5.13;2.10;;;;;;;;;;4920559;29;20862;-61
2023/10/07 16:16:20;;;;;;;3.45;2.10;;;;;;;;;;4922534;29;20616;-61